Country
Station

 

Weather  for  Price, Carbon County Airport  -  United States    United States

  
28 °C (82 °F)
    
 
 

Current METAR for Price, Carbon County Airport is :

KPUC 191653Z AUTO 18005KT 10SM CLR 28/M03 A3008 RMK AO2 SLP078 T02831033

 

This is a report for Price, Carbon County Airport - United States.
 
The report was made 28 minutes ago, at 16:53 UTC .
The wind was blowing at a speed of 2.6 meters per second (5.8 miles per hour) from south (180°).
 
The temperature was 28 °C (82 °F), with a dew-point at -3 °C (27 °F).
The temperature felt like 27 °C (80 °F).
 
The atmospheric pressure was 1019 hPa (30.08 inHg).
The relative humidity was 13.0%.
 
The sky was clear.
 
The overall visibility was 16.1 kilometers (10.0 miles).
 

 
 
 
 

Country :   A   B   C   D   E   F   G   H   I   J   K   L   M   N   O   P   Q   R   S   T   U   V   W   Y   Z

 

Site Info  |  Disclaimer  |  Credits  |  Privacy
Contact us  |  Add to favorites
© 2013-2019 METARs - All rights reserved